sensor_id;sensor_type;location;lat;lon;timestamp;P1;durP1;ratioP1;P2;durP2;ratioP2
49147;SDS011;41980;45.550;12.070;2023-02-28T00:03:27;5.63;;;3.83;;
49147;SDS011;41980;45.550;12.070;2023-02-28T00:09:29;5.32;;;3.42;;
49147;SDS011;41980;45.550;12.070;2023-02-28T00:15:31;4.53;;;3.20;;
49147;SDS011;41980;45.550;12.070;2023-02-28T00:21:34;5.35;;;3.45;;
49147;SDS011;41980;45.550;12.070;2023-02-28T00:27:37;6.03;;;3.38;;
49147;SDS011;41980;45.550;12.070;2023-02-28T00:33:40;4.15;;;2.50;;
49147;SDS011;41980;45.550;12.070;2023-02-28T00:39:42;4.30;;;2.65;;
49147;SDS011;41980;45.550;12.070;2023-02-28T00:45:44;7.40;;;2.63;;
49147;SDS011;41980;45.550;12.070;2023-02-28T00:51:46;5.07;;;3.10;;
49147;SDS011;41980;45.550;12.070;2023-02-28T01:03:50;5.32;;;3.47;;
49147;SDS011;41980;45.550;12.070;2023-02-28T01:09:51;7.72;;;4.43;;
49147;SDS011;41980;45.550;12.070;2023-02-28T01:15:54;5.45;;;3.40;;
49147;SDS011;41980;45.550;12.070;2023-02-28T01:22:00;5.28;;;3.30;;
49147;SDS011;41980;45.550;12.070;2023-02-28T01:28:03;5.78;;;3.28;;
49147;SDS011;41980;45.550;12.070;2023-02-28T01:34:06;4.25;;;2.70;;
49147;SDS011;41980;45.550;12.070;2023-02-28T01:40:09;4.15;;;2.33;;
49147;SDS011;41980;45.550;12.070;2023-02-28T01:46:12;5.28;;;2.70;;
49147;SDS011;41980;45.550;12.070;2023-02-28T01:52:15;4.63;;;2.47;;
49147;SDS011;41980;45.550;12.070;2023-02-28T01:58:19;4.72;;;2.97;;
49147;SDS011;41980;45.550;12.070;2023-02-28T02:04:23;5.13;;;3.33;;
49147;SDS011;41980;45.550;12.070;2023-02-28T02:10:30;3.45;;;2.13;;
49147;SDS011;41980;45.550;12.070;2023-02-28T02:16:41;3.60;;;2.20;;
49147;SDS011;41980;45.550;12.070;2023-02-28T02:41:13;4.95;;;2.72;;
49147;SDS011;41980;45.550;12.070;2023-02-28T02:47:24;5.03;;;3.03;;
49147;SDS011;41980;45.550;12.070;2023-02-28T02:53:32;4.55;;;2.92;;
49147;SDS011;41980;45.550;12.070;2023-02-28T02:59:38;3.63;;;2.50;;
49147;SDS011;41980;45.550;12.070;2023-02-28T03:05:44;4.28;;;2.72;;
49147;SDS011;41980;45.550;12.070;2023-02-28T03:11:49;4.28;;;3.08;;
49147;SDS011;41980;45.550;12.070;2023-02-28T03:30:12;5.05;;;3.42;;
49147;SDS011;41980;45.550;12.070;2023-02-28T03:36:18;5.32;;;3.30;;
49147;SDS011;41980;45.550;12.070;2023-02-28T03:42:25;5.85;;;3.33;;
49147;SDS011;41980;45.550;12.070;2023-02-28T03:48:34;6.32;;;4.25;;
49147;SDS011;41980;45.550;12.070;2023-02-28T03:54:41;6.47;;;4.30;;
49147;SDS011;41980;45.550;12.070;2023-02-28T04:00:47;6.65;;;3.80;;
49147;SDS011;41980;45.550;12.070;2023-02-28T04:07:00;6.38;;;4.38;;
49147;SDS011;41980;45.550;12.070;2023-02-28T04:13:06;5.93;;;3.80;;
49147;SDS011;41980;45.550;12.070;2023-02-28T04:19:08;6.85;;;3.60;;
49147;SDS011;41980;45.550;12.070;2023-02-28T04:25:12;7.28;;;4.65;;
49147;SDS011;41980;45.550;12.070;2023-02-28T04:31:14;6.63;;;4.30;;
49147;SDS011;41980;45.550;12.070;2023-02-28T04:37:16;6.07;;;3.65;;
49147;SDS011;41980;45.550;12.070;2023-02-28T04:49:19;7.68;;;5.22;;
49147;SDS011;41980;45.550;12.070;2023-02-28T04:55:21;6.53;;;4.32;;
49147;SDS011;41980;45.550;12.070;2023-02-28T05:01:25;6.43;;;3.88;;
49147;SDS011;41980;45.550;12.070;2023-02-28T05:07:28;5.50;;;3.60;;
49147;SDS011;41980;45.550;12.070;2023-02-28T05:13:30;5.65;;;3.60;;
49147;SDS011;41980;45.550;12.070;2023-02-28T05:19:32;7.90;;;4.15;;
49147;SDS011;41980;45.550;12.070;2023-02-28T05:31:36;5.47;;;3.55;;
49147;SDS011;41980;45.550;12.070;2023-02-28T05:37:38;6.22;;;3.45;;
49147;SDS011;41980;45.550;12.070;2023-02-28T05:43:40;5.28;;;3.17;;
49147;SDS011;41980;45.550;12.070;2023-02-28T05:49:42;7.82;;;4.43;;
49147;SDS011;41980;45.550;12.070;2023-02-28T06:01:46;7.53;;;3.75;;
49147;SDS011;41980;45.550;12.070;2023-02-28T06:07:50;6.13;;;3.47;;
49147;SDS011;41980;45.550;12.070;2023-02-28T06:19:56;4.93;;;3.05;;
49147;SDS011;41980;45.550;12.070;2023-02-28T06:25:58;6.75;;;4.00;;
49147;SDS011;41980;45.550;12.070;2023-02-28T06:32:00;5.53;;;3.00;;
49147;SDS011;41980;45.550;12.070;2023-02-28T06:38:03;8.05;;;4.50;;
49147;SDS011;41980;45.550;12.070;2023-02-28T06:44:05;9.98;;;4.60;;
49147;SDS011;41980;45.550;12.070;2023-02-28T06:50:13;7.07;;;4.50;;
49147;SDS011;41980;45.550;12.070;2023-02-28T06:56:16;9.85;;;4.72;;
49147;SDS011;41980;45.550;12.070;2023-02-28T07:02:18;8.18;;;4.80;;
49147;SDS011;41980;45.550;12.070;2023-02-28T07:08:20;9.38;;;5.40;;
49147;SDS011;41980;45.550;12.070;2023-02-28T07:14:24;7.78;;;4.45;;
49147;SDS011;41980;45.550;12.070;2023-02-28T07:26:28;8.02;;;5.25;;
49147;SDS011;41980;45.550;12.070;2023-02-28T07:32:30;6.47;;;4.43;;
49147;SDS011;41980;45.550;12.070;2023-02-28T07:38:33;10.30;;;6.70;;
49147;SDS011;41980;45.550;12.070;2023-02-28T07:44:37;9.93;;;6.03;;
49147;SDS011;41980;45.550;12.070;2023-02-28T07:50:41;10.48;;;6.38;;
49147;SDS011;41980;45.550;12.070;2023-02-28T08:02:45;8.40;;;5.95;;
49147;SDS011;41980;45.550;12.070;2023-02-28T08:08:47;11.07;;;7.50;;
49147;SDS011;41980;45.550;12.070;2023-02-28T08:14:50;9.48;;;5.95;;
49147;SDS011;41980;45.550;12.070;2023-02-28T08:26:54;11.90;;;7.55;;
49147;SDS011;41980;45.550;12.070;2023-02-28T08:32:56;10.30;;;6.65;;
49147;SDS011;41980;45.550;12.070;2023-02-28T08:45:01;9.30;;;6.00;;
49147;SDS011;41980;45.550;12.070;2023-02-28T08:51:04;11.00;;;7.00;;
49147;SDS011;41980;45.550;12.070;2023-02-28T08:57:10;12.25;;;6.50;;
49147;SDS011;41980;45.550;12.070;2023-02-28T09:03:12;11.07;;;7.18;;
49147;SDS011;41980;45.550;12.070;2023-02-28T09:09:14;11.52;;;6.57;;
49147;SDS011;41980;45.550;12.070;2023-02-28T09:15:17;14.35;;;7.13;;
49147;SDS011;41980;45.550;12.070;2023-02-28T09:21:19;11.15;;;6.70;;
49147;SDS011;41980;45.550;12.070;2023-02-28T09:27:21;9.55;;;6.40;;
49147;SDS011;41980;45.550;12.070;2023-02-28T09:33:23;10.13;;;6.25;;
49147;SDS011;41980;45.550;12.070;2023-02-28T09:39:26;9.82;;;5.97;;
49147;SDS011;41980;45.550;12.070;2023-02-28T09:57:45;7.80;;;5.20;;
49147;SDS011;41980;45.550;12.070;2023-02-28T10:09:52;9.70;;;5.63;;
49147;SDS011;41980;45.550;12.070;2023-02-28T10:15:58;8.55;;;5.65;;
49147;SDS011;41980;45.550;12.070;2023-02-28T10:22:10;8.38;;;5.53;;
49147;SDS011;41980;45.550;12.070;2023-02-28T10:28:17;11.38;;;6.03;;
49147;SDS011;41980;45.550;12.070;2023-02-28T10:34:19;9.02;;;5.85;;
49147;SDS011;41980;45.550;12.070;2023-02-28T10:46:24;8.50;;;6.05;;
49147;SDS011;41980;45.550;12.070;2023-02-28T11:04:48;9.20;;;5.75;;
49147;SDS011;41980;45.550;12.070;2023-02-28T11:16:58;10.23;;;6.13;;
49147;SDS011;41980;45.550;12.070;2023-02-28T11:23:15;8.15;;;5.55;;
49147;SDS011;41980;45.550;12.070;2023-02-28T11:29:22;8.82;;;6.22;;
49147;SDS011;41980;45.550;12.070;2023-02-28T11:35:29;10.75;;;7.22;;
49147;SDS011;41980;45.550;12.070;2023-02-28T12:37:04;9.93;;;5.47;;
49147;SDS011;41980;45.550;12.070;2023-02-28T12:43:16;8.98;;;6.00;;
49147;SDS011;41980;45.550;12.070;2023-02-28T12:49:23;7.47;;;5.30;;
49147;SDS011;41980;45.550;12.070;2023-02-28T13:14:14;7.47;;;4.82;;
49147;SDS011;41980;45.550;12.070;2023-02-28T13:20:20;7.70;;;5.15;;
49147;SDS011;41980;45.550;12.070;2023-02-28T13:32:33;7.07;;;5.10;;
49147;SDS011;41980;45.550;12.070;2023-02-28T13:38:38;7.63;;;5.47;;
49147;SDS011;41980;45.550;12.070;2023-02-28T13:50:51;8.50;;;4.53;;
49147;SDS011;41980;45.550;12.070;2023-02-28T14:03:09;9.00;;;4.88;;
49147;SDS011;41980;45.550;12.070;2023-02-28T14:09:19;6.38;;;4.55;;
49147;SDS011;41980;45.550;12.070;2023-02-28T14:21:38;7.68;;;5.20;;
49147;SDS011;41980;45.550;12.070;2023-02-28T14:27:54;10.02;;;5.55;;
49147;SDS011;41980;45.550;12.070;2023-02-28T14:46:20;5.60;;;3.55;;
49147;SDS011;41980;45.550;12.070;2023-02-28T14:52:25;5.82;;;3.47;;
49147;SDS011;41980;45.550;12.070;2023-02-28T14:58:31;7.10;;;3.75;;
49147;SDS011;41980;45.550;12.070;2023-02-28T15:04:35;11.05;;;5.72;;
49147;SDS011;41980;45.550;12.070;2023-02-28T15:16:39;6.32;;;3.53;;
49147;SDS011;41980;45.550;12.070;2023-02-28T15:22:43;7.93;;;4.95;;
49147;SDS011;41980;45.550;12.070;2023-02-28T15:28:50;13.75;;;5.80;;
49147;SDS011;41980;45.550;12.070;2023-02-28T15:35:17;13.70;;;5.10;;
49147;SDS011;41980;45.550;12.070;2023-02-28T15:47:35;7.10;;;3.42;;
49147;SDS011;41980;45.550;12.070;2023-02-28T15:53:40;6.57;;;4.00;;
49147;SDS011;41980;45.550;12.070;2023-02-28T15:59:51;7.50;;;4.10;;
49147;SDS011;41980;45.550;12.070;2023-02-28T16:12:05;11.93;;;5.70;;
49147;SDS011;41980;45.550;12.070;2023-02-28T16:18:14;9.15;;;5.68;;
49147;SDS011;41980;45.550;12.070;2023-02-28T16:30:20;10.38;;;4.97;;
49147;SDS011;41980;45.550;12.070;2023-02-28T16:36:24;8.60;;;4.53;;
49147;SDS011;41980;45.550;12.070;2023-02-28T16:48:29;8.48;;;4.35;;
49147;SDS011;41980;45.550;12.070;2023-02-28T16:54:32;7.50;;;4.72;;
49147;SDS011;41980;45.550;12.070;2023-02-28T17:00:34;8.52;;;4.65;;
49147;SDS011;41980;45.550;12.070;2023-02-28T17:06:36;6.20;;;3.83;;
49147;SDS011;41980;45.550;12.070;2023-02-28T17:12:38;23.13;;;9.75;;
49147;SDS011;41980;45.550;12.070;2023-02-28T17:18:40;11.32;;;5.38;;
49147;SDS011;41980;45.550;12.070;2023-02-28T17:30:44;14.00;;;7.00;;
49147;SDS011;41980;45.550;12.070;2023-02-28T17:36:51;15.52;;;7.55;;
49147;SDS011;41980;45.550;12.070;2023-02-28T17:42:53;13.32;;;6.97;;
49147;SDS011;41980;45.550;12.070;2023-02-28T17:48:57;16.23;;;9.02;;
49147;SDS011;41980;45.550;12.070;2023-02-28T17:55:01;13.25;;;9.07;;
49147;SDS011;41980;45.550;12.070;2023-02-28T18:01:04;16.25;;;8.80;;
49147;SDS011;41980;45.550;12.070;2023-02-28T18:07:08;12.45;;;7.60;;
49147;SDS011;41980;45.550;12.070;2023-02-28T18:13:12;12.27;;;7.22;;
49147;SDS011;41980;45.550;12.070;2023-02-28T18:19:15;9.35;;;6.40;;
49147;SDS011;41980;45.550;12.070;2023-02-28T18:25:17;15.07;;;8.82;;
49147;SDS011;41980;45.550;12.070;2023-02-28T18:31:21;20.05;;;11.35;;
49147;SDS011;41980;45.550;12.070;2023-02-28T18:37:23;13.18;;;9.13;;
49147;SDS011;41980;45.550;12.070;2023-02-28T18:49:31;14.30;;;8.68;;
49147;SDS011;41980;45.550;12.070;2023-02-28T18:55:35;11.98;;;7.80;;
49147;SDS011;41980;45.550;12.070;2023-02-28T19:07:40;10.07;;;6.15;;
49147;SDS011;41980;45.550;12.070;2023-02-28T19:13:42;18.60;;;11.98;;
49147;SDS011;41980;45.550;12.070;2023-02-28T19:19:45;16.05;;;10.88;;
49147;SDS011;41980;45.550;12.070;2023-02-28T19:25:47;16.40;;;11.02;;
49147;SDS011;41980;45.550;12.070;2023-02-28T19:37:53;15.05;;;9.45;;
49147;SDS011;41980;45.550;12.070;2023-02-28T19:43:55;21.33;;;12.30;;
49147;SDS011;41980;45.550;12.070;2023-02-28T19:49:57;15.48;;;10.30;;
49147;SDS011;41980;45.550;12.070;2023-02-28T20:02:01;16.25;;;10.52;;
49147;SDS011;41980;45.550;12.070;2023-02-28T20:14:05;13.65;;;8.13;;
49147;SDS011;41980;45.550;12.070;2023-02-28T20:20:08;14.52;;;8.63;;
49147;SDS011;41980;45.550;12.070;2023-02-28T20:26:11;15.07;;;8.95;;
49147;SDS011;41980;45.550;12.070;2023-02-28T20:32:13;17.48;;;10.38;;
49147;SDS011;41980;45.550;12.070;2023-02-28T20:44:17;11.52;;;7.30;;
49147;SDS011;41980;45.550;12.070;2023-02-28T20:56:21;15.00;;;8.93;;
49147;SDS011;41980;45.550;12.070;2023-02-28T21:02:24;13.85;;;8.35;;
49147;SDS011;41980;45.550;12.070;2023-02-28T21:08:26;13.50;;;8.13;;
49147;SDS011;41980;45.550;12.070;2023-02-28T21:14:28;11.75;;;6.78;;
49147;SDS011;41980;45.550;12.070;2023-02-28T21:20:32;13.82;;;8.10;;
49147;SDS011;41980;45.550;12.070;2023-02-28T21:32:36;14.55;;;8.48;;
49147;SDS011;41980;45.550;12.070;2023-02-28T21:38:39;12.38;;;7.53;;
49147;SDS011;41980;45.550;12.070;2023-02-28T21:44:42;15.15;;;8.35;;
49147;SDS011;41980;45.550;12.070;2023-02-28T21:50:53;9.68;;;6.35;;
49147;SDS011;41980;45.550;12.070;2023-02-28T21:56:56;13.32;;;8.02;;
49147;SDS011;41980;45.550;12.070;2023-02-28T22:02:59;11.05;;;6.75;;
49147;SDS011;41980;45.550;12.070;2023-02-28T22:09:03;16.10;;;9.52;;
49147;SDS011;41980;45.550;12.070;2023-02-28T22:15:07;14.68;;;8.57;;
49147;SDS011;41980;45.550;12.070;2023-02-28T22:21:10;13.05;;;7.93;;
49147;SDS011;41980;45.550;12.070;2023-02-28T22:27:13;11.75;;;6.43;;
49147;SDS011;41980;45.550;12.070;2023-02-28T22:33:16;12.70;;;6.68;;
49147;SDS011;41980;45.550;12.070;2023-02-28T22:39:19;12.73;;;7.05;;
49147;SDS011;41980;45.550;12.070;2023-02-28T22:45:24;15.27;;;7.93;;
49147;SDS011;41980;45.550;12.070;2023-02-28T22:51:27;11.45;;;6.45;;
49147;SDS011;41980;45.550;12.070;2023-02-28T22:57:30;11.73;;;7.40;;
49147;SDS011;41980;45.550;12.070;2023-02-28T23:03:32;12.00;;;6.45;;
49147;SDS011;41980;45.550;12.070;2023-02-28T23:15:37;10.15;;;5.55;;
49147;SDS011;41980;45.550;12.070;2023-02-28T23:21:42;9.05;;;5.18;;
49147;SDS011;41980;45.550;12.070;2023-02-28T23:27:45;9.13;;;5.55;;
49147;SDS011;41980;45.550;12.070;2023-02-28T23:33:47;12.85;;;5.85;;
49147;SDS011;41980;45.550;12.070;2023-02-28T23:39:49;9.45;;;5.55;;
49147;SDS011;41980;45.550;12.070;2023-02-28T23:51:56;9.73;;;5.40;;
49147;SDS011;41980;45.550;12.070;2023-02-28T23:57:58;8.52;;;4.97;;
